sensor_id;sensor_type;location;lat;lon;timestamp;P1;durP1;ratioP1;P2;durP2;ratioP2
68987;SDS011;56038;46.080;11.116;2022-11-20T00:01:36;6.40;;;4.25;;
68987;SDS011;56038;46.080;11.116;2022-11-20T00:06:38;6.00;;;3.80;;
68987;SDS011;56038;46.080;11.116;2022-11-20T00:11:41;5.05;;;4.00;;
68987;SDS011;56038;46.080;11.116;2022-11-20T00:16:43;7.15;;;4.20;;
68987;SDS011;56038;46.080;11.116;2022-11-20T00:21:45;5.07;;;3.38;;
68987;SDS011;56038;46.080;11.116;2022-11-20T00:26:48;5.97;;;3.53;;
68987;SDS011;56038;46.080;11.116;2022-11-20T00:31:50;4.90;;;3.90;;
68987;SDS011;56038;46.080;11.116;2022-11-20T00:36:52;4.50;;;3.60;;
68987;SDS011;56038;46.080;11.116;2022-11-20T00:41:55;5.15;;;3.90;;
68987;SDS011;56038;46.080;11.116;2022-11-20T00:46:57;5.75;;;3.67;;
68987;SDS011;56038;46.080;11.116;2022-11-20T00:51:58;5.38;;;3.90;;
68987;SDS011;56038;46.080;11.116;2022-11-20T00:57:01;5.55;;;3.63;;
68987;SDS011;56038;46.080;11.116;2022-11-20T01:02:03;3.88;;;3.55;;
68987;SDS011;56038;46.080;11.116;2022-11-20T01:07:05;4.97;;;3.78;;
68987;SDS011;56038;46.080;11.116;2022-11-20T01:12:08;4.10;;;3.65;;
68987;SDS011;56038;46.080;11.116;2022-11-20T01:17:10;5.22;;;3.70;;
68987;SDS011;56038;46.080;11.116;2022-11-20T01:22:11;3.63;;;3.28;;
68987;SDS011;56038;46.080;11.116;2022-11-20T01:27:15;4.82;;;3.70;;
68987;SDS011;56038;46.080;11.116;2022-11-20T01:32:16;4.85;;;3.67;;
68987;SDS011;56038;46.080;11.116;2022-11-20T01:37:18;4.55;;;3.28;;
68987;SDS011;56038;46.080;11.116;2022-11-20T01:42:21;3.42;;;3.13;;
68987;SDS011;56038;46.080;11.116;2022-11-20T01:47:41;4.47;;;4.00;;
68987;SDS011;56038;46.080;11.116;2022-11-20T01:52:47;4.93;;;3.95;;
68987;SDS011;56038;46.080;11.116;2022-11-20T01:57:55;5.50;;;4.10;;
68987;SDS011;56038;46.080;11.116;2022-11-20T02:02:58;4.68;;;3.80;;
68987;SDS011;56038;46.080;11.116;2022-11-20T02:08:05;2.95;;;2.58;;
68987;SDS011;56038;46.080;11.116;2022-11-20T02:13:09;4.63;;;3.35;;
68987;SDS011;56038;46.080;11.116;2022-11-20T02:18:28;3.70;;;3.13;;
68987;SDS011;56038;46.080;11.116;2022-11-20T02:23:32;6.05;;;3.78;;
68987;SDS011;56038;46.080;11.116;2022-11-20T02:28:40;6.47;;;3.00;;
68987;SDS011;56038;46.080;11.116;2022-11-20T02:33:42;7.18;;;3.60;;
68987;SDS011;56038;46.080;11.116;2022-11-20T02:38:44;6.03;;;3.65;;
68987;SDS011;56038;46.080;11.116;2022-11-20T02:43:48;4.93;;;3.25;;
68987;SDS011;56038;46.080;11.116;2022-11-20T02:48:49;3.88;;;3.25;;
68987;SDS011;56038;46.080;11.116;2022-11-20T02:53:51;4.88;;;3.50;;
68987;SDS011;56038;46.080;11.116;2022-11-20T02:58:54;4.57;;;3.28;;
68987;SDS011;56038;46.080;11.116;2022-11-20T03:03:56;3.95;;;3.15;;
68987;SDS011;56038;46.080;11.116;2022-11-20T03:08:58;3.85;;;3.10;;
68987;SDS011;56038;46.080;11.116;2022-11-20T03:14:02;5.15;;;3.58;;
68987;SDS011;56038;46.080;11.116;2022-11-20T03:19:04;3.85;;;2.85;;
68987;SDS011;56038;46.080;11.116;2022-11-20T03:24:06;3.58;;;3.13;;
68987;SDS011;56038;46.080;11.116;2022-11-20T03:29:10;5.20;;;3.28;;
68987;SDS011;56038;46.080;11.116;2022-11-20T03:34:12;4.07;;;3.30;;
68987;SDS011;56038;46.080;11.116;2022-11-20T03:39:13;4.63;;;3.20;;
68987;SDS011;56038;46.080;11.116;2022-11-20T03:44:17;4.00;;;3.47;;
68987;SDS011;56038;46.080;11.116;2022-11-20T03:49:18;4.78;;;3.10;;
68987;SDS011;56038;46.080;11.116;2022-11-20T03:54:20;4.25;;;2.97;;
68987;SDS011;56038;46.080;11.116;2022-11-20T03:59:23;3.80;;;2.85;;
68987;SDS011;56038;46.080;11.116;2022-11-20T04:04:25;4.50;;;3.15;;
68987;SDS011;56038;46.080;11.116;2022-11-20T04:09:27;4.07;;;3.10;;
68987;SDS011;56038;46.080;11.116;2022-11-20T04:14:30;3.75;;;2.78;;
68987;SDS011;56038;46.080;11.116;2022-11-20T04:19:32;3.85;;;2.80;;
68987;SDS011;56038;46.080;11.116;2022-11-20T04:24:34;4.78;;;3.20;;
68987;SDS011;56038;46.080;11.116;2022-11-20T04:29:37;5.72;;;3.45;;
68987;SDS011;56038;46.080;11.116;2022-11-20T04:34:39;3.00;;;2.42;;
68987;SDS011;56038;46.080;11.116;2022-11-20T04:39:41;3.28;;;2.75;;
68987;SDS011;56038;46.080;11.116;2022-11-20T04:44:44;3.38;;;3.03;;
68987;SDS011;56038;46.080;11.116;2022-11-20T04:49:46;3.88;;;2.60;;
68987;SDS011;56038;46.080;11.116;2022-11-20T04:54:48;2.92;;;2.72;;
68987;SDS011;56038;46.080;11.116;2022-11-20T04:59:54;3.85;;;2.50;;
68987;SDS011;56038;46.080;11.116;2022-11-20T05:04:55;3.15;;;2.50;;
68987;SDS011;56038;46.080;11.116;2022-11-20T05:09:57;4.40;;;2.67;;
68987;SDS011;56038;46.080;11.116;2022-11-20T05:15:00;2.55;;;2.25;;
68987;SDS011;56038;46.080;11.116;2022-11-20T05:20:02;3.20;;;2.30;;
68987;SDS011;56038;46.080;11.116;2022-11-20T05:25:05;5.32;;;2.92;;
68987;SDS011;56038;46.080;11.116;2022-11-20T05:30:09;3.10;;;2.72;;
68987;SDS011;56038;46.080;11.116;2022-11-20T05:35:12;3.42;;;2.88;;
68987;SDS011;56038;46.080;11.116;2022-11-20T05:40:14;3.65;;;3.33;;
68987;SDS011;56038;46.080;11.116;2022-11-20T05:45:17;5.07;;;2.60;;
68987;SDS011;56038;46.080;11.116;2022-11-20T05:50:19;4.15;;;2.85;;
68987;SDS011;56038;46.080;11.116;2022-11-20T05:55:20;4.18;;;2.85;;
68987;SDS011;56038;46.080;11.116;2022-11-20T06:00:24;3.15;;;2.55;;
68987;SDS011;56038;46.080;11.116;2022-11-20T06:05:27;4.63;;;3.00;;
68987;SDS011;56038;46.080;11.116;2022-11-20T06:10:30;3.47;;;2.58;;
68987;SDS011;56038;46.080;11.116;2022-11-20T06:15:33;5.68;;;2.45;;
68987;SDS011;56038;46.080;11.116;2022-11-20T06:20:35;4.47;;;2.50;;
68987;SDS011;56038;46.080;11.116;2022-11-20T06:25:37;2.65;;;2.20;;
68987;SDS011;56038;46.080;11.116;2022-11-20T06:30:44;5.10;;;2.58;;
68987;SDS011;56038;46.080;11.116;2022-11-20T06:35:46;4.30;;;2.75;;
68987;SDS011;56038;46.080;11.116;2022-11-20T06:40:47;2.85;;;2.40;;
68987;SDS011;56038;46.080;11.116;2022-11-20T06:45:52;2.20;;;1.75;;
68987;SDS011;56038;46.080;11.116;2022-11-20T06:50:54;4.90;;;2.40;;
68987;SDS011;56038;46.080;11.116;2022-11-20T06:55:56;3.83;;;1.75;;
68987;SDS011;56038;46.080;11.116;2022-11-20T07:01:00;2.45;;;1.95;;
68987;SDS011;56038;46.080;11.116;2022-11-20T07:06:03;2.30;;;2.10;;
68987;SDS011;56038;46.080;11.116;2022-11-20T07:11:06;4.95;;;2.10;;
68987;SDS011;56038;46.080;11.116;2022-11-20T07:16:09;4.35;;;1.85;;
68987;SDS011;56038;46.080;11.116;2022-11-20T07:21:11;6.63;;;3.60;;
68987;SDS011;56038;46.080;11.116;2022-11-20T07:26:13;4.13;;;2.33;;
68987;SDS011;56038;46.080;11.116;2022-11-20T07:31:16;3.20;;;2.28;;
68987;SDS011;56038;46.080;11.116;2022-11-20T07:36:18;2.58;;;2.00;;
68987;SDS011;56038;46.080;11.116;2022-11-20T07:41:19;3.45;;;2.08;;
68987;SDS011;56038;46.080;11.116;2022-11-20T07:46:23;4.38;;;2.55;;
68987;SDS011;56038;46.080;11.116;2022-11-20T07:51:24;5.22;;;2.63;;
68987;SDS011;56038;46.080;11.116;2022-11-20T07:56:27;24.75;;;12.73;;
68987;SDS011;56038;46.080;11.116;2022-11-20T08:01:30;7.80;;;4.32;;
68987;SDS011;56038;46.080;11.116;2022-11-20T08:06:32;3.70;;;2.63;;
68987;SDS011;56038;46.080;11.116;2022-11-20T08:11:34;3.70;;;2.70;;
68987;SDS011;56038;46.080;11.116;2022-11-20T08:16:54;2.35;;;2.00;;
68987;SDS011;56038;46.080;11.116;2022-11-20T08:21:56;2.88;;;2.60;;
68987;SDS011;56038;46.080;11.116;2022-11-20T08:26:58;2.45;;;1.83;;
68987;SDS011;56038;46.080;11.116;2022-11-20T08:32:02;2.05;;;1.85;;
68987;SDS011;56038;46.080;11.116;2022-11-20T08:37:03;2.20;;;2.00;;
68987;SDS011;56038;46.080;11.116;2022-11-20T08:42:06;10.30;;;6.40;;
68987;SDS011;56038;46.080;11.116;2022-11-20T08:47:09;7.28;;;3.63;;
68987;SDS011;56038;46.080;11.116;2022-11-20T08:52:11;2.60;;;2.40;;
68987;SDS011;56038;46.080;11.116;2022-11-20T08:57:13;2.72;;;2.35;;
68987;SDS011;56038;46.080;11.116;2022-11-20T09:02:16;2.75;;;2.50;;
68987;SDS011;56038;46.080;11.116;2022-11-20T09:07:18;2.20;;;2.00;;
68987;SDS011;56038;46.080;11.116;2022-11-20T09:12:19;2.20;;;1.63;;
68987;SDS011;56038;46.080;11.116;2022-11-20T09:17:23;1.90;;;1.80;;
68987;SDS011;56038;46.080;11.116;2022-11-20T09:22:24;2.10;;;1.90;;
68987;SDS011;56038;46.080;11.116;2022-11-20T09:27:26;3.00;;;2.00;;
68987;SDS011;56038;46.080;11.116;2022-11-20T09:32:29;1.90;;;1.80;;
68987;SDS011;56038;46.080;11.116;2022-11-20T09:37:31;3.30;;;1.75;;
68987;SDS011;56038;46.080;11.116;2022-11-20T09:42:35;2.40;;;2.20;;
68987;SDS011;56038;46.080;11.116;2022-11-20T09:47:47;3.85;;;2.15;;
68987;SDS011;56038;46.080;11.116;2022-11-20T09:53:11;2.45;;;1.42;;
68987;SDS011;56038;46.080;11.116;2022-11-20T09:58:16;1.77;;;1.30;;
68987;SDS011;56038;46.080;11.116;2022-11-20T10:03:29;1.40;;;1.30;;
68987;SDS011;56038;46.080;11.116;2022-11-20T10:08:39;1.65;;;1.50;;
68987;SDS011;56038;46.080;11.116;2022-11-20T10:13:46;1.65;;;1.48;;
68987;SDS011;56038;46.080;11.116;2022-11-20T10:19:06;1.23;;;1.13;;
68987;SDS011;56038;46.080;11.116;2022-11-20T10:24:29;1.80;;;1.50;;
68987;SDS011;56038;46.080;11.116;2022-11-20T10:29:43;1.33;;;1.15;;
68987;SDS011;56038;46.080;11.116;2022-11-20T10:34:58;1.37;;;1.07;;
68987;SDS011;56038;46.080;11.116;2022-11-20T10:40:05;2.05;;;1.40;;
68987;SDS011;56038;46.080;11.116;2022-11-20T10:45:21;1.55;;;1.45;;
68987;SDS011;56038;46.080;11.116;2022-11-20T10:50:35;1.73;;;1.63;;
68987;SDS011;56038;46.080;11.116;2022-11-20T10:55:42;1.27;;;1.00;;
68987;SDS011;56038;46.080;11.116;2022-11-20T11:00:49;2.72;;;1.20;;
68987;SDS011;56038;46.080;11.116;2022-11-20T11:05:53;4.18;;;1.67;;
68987;SDS011;56038;46.080;11.116;2022-11-20T11:11:00;1.40;;;1.30;;
68987;SDS011;56038;46.080;11.116;2022-11-20T11:16:16;1.42;;;1.23;;
68987;SDS011;56038;46.080;11.116;2022-11-20T11:21:24;1.20;;;1.10;;
68987;SDS011;56038;46.080;11.116;2022-11-20T11:26:28;0.93;;;0.93;;
68987;SDS011;56038;46.080;11.116;2022-11-20T11:31:31;1.50;;;1.40;;
68987;SDS011;56038;46.080;11.116;2022-11-20T11:36:37;1.10;;;1.00;;
68987;SDS011;56038;46.080;11.116;2022-11-20T11:41:39;1.30;;;1.20;;
68987;SDS011;56038;46.080;11.116;2022-11-20T11:46:44;1.40;;;1.23;;
68987;SDS011;56038;46.080;11.116;2022-11-20T11:52:00;1.63;;;1.38;;
68987;SDS011;56038;46.080;11.116;2022-11-20T11:57:09;1.05;;;1.00;;
68987;SDS011;56038;46.080;11.116;2022-11-20T12:02:22;1.95;;;1.02;;
68987;SDS011;56038;46.080;11.116;2022-11-20T12:07:35;1.20;;;1.10;;
68987;SDS011;56038;46.080;11.116;2022-11-20T12:12:42;3.33;;;2.78;;
68987;SDS011;56038;46.080;11.116;2022-11-20T12:17:47;1.73;;;1.08;;
68987;SDS011;56038;46.080;11.116;2022-11-20T12:22:52;1.20;;;1.10;;
68987;SDS011;56038;46.080;11.116;2022-11-20T12:33:45;2.35;;;1.42;;
68987;SDS011;56038;46.080;11.116;2022-11-20T12:39:08;2.08;;;1.70;;
68987;SDS011;56038;46.080;11.116;2022-11-20T12:44:25;1.35;;;1.25;;
68987;SDS011;56038;46.080;11.116;2022-11-20T12:49:59;1.50;;;1.23;;
68987;SDS011;56038;46.080;11.116;2022-11-20T12:55:11;1.83;;;1.38;;
68987;SDS011;56038;46.080;11.116;2022-11-20T13:00:18;2.88;;;1.65;;
68987;SDS011;56038;46.080;11.116;2022-11-20T13:05:24;2.28;;;1.42;;
68987;SDS011;56038;46.080;11.116;2022-11-20T13:10:37;2.85;;;1.50;;
68987;SDS011;56038;46.080;11.116;2022-11-20T13:15:47;2.13;;;1.85;;
68987;SDS011;56038;46.080;11.116;2022-11-20T13:20:57;1.40;;;1.30;;
68987;SDS011;56038;46.080;11.116;2022-11-20T13:26:05;1.20;;;1.10;;
68987;SDS011;56038;46.080;11.116;2022-11-20T13:31:27;1.10;;;1.00;;
68987;SDS011;56038;46.080;11.116;2022-11-20T13:36:32;0.98;;;0.93;;
68987;SDS011;56038;46.080;11.116;2022-11-20T13:41:38;3.03;;;1.77;;
68987;SDS011;56038;46.080;11.116;2022-11-20T13:46:41;5.18;;;1.40;;
68987;SDS011;56038;46.080;11.116;2022-11-20T13:51:45;1.35;;;1.20;;
68987;SDS011;56038;46.080;11.116;2022-11-20T13:56:54;1.55;;;1.45;;
68987;SDS011;56038;46.080;11.116;2022-11-20T14:02:07;3.42;;;1.70;;
68987;SDS011;56038;46.080;11.116;2022-11-20T14:07:12;3.00;;;1.80;;
68987;SDS011;56038;46.080;11.116;2022-11-20T14:12:17;3.00;;;1.83;;
68987;SDS011;56038;46.080;11.116;2022-11-20T14:17:21;1.83;;;1.70;;
68987;SDS011;56038;46.080;11.116;2022-11-20T14:22:25;1.60;;;1.50;;
68987;SDS011;56038;46.080;11.116;2022-11-20T14:27:32;4.05;;;2.05;;
68987;SDS011;56038;46.080;11.116;2022-11-20T14:32:35;1.95;;;1.60;;
68987;SDS011;56038;46.080;11.116;2022-11-20T14:37:37;1.80;;;1.70;;
68987;SDS011;56038;46.080;11.116;2022-11-20T14:42:44;2.45;;;2.25;;
68987;SDS011;56038;46.080;11.116;2022-11-20T14:47:46;2.53;;;2.03;;
68987;SDS011;56038;46.080;11.116;2022-11-20T14:52:55;4.03;;;3.05;;
68987;SDS011;56038;46.080;11.116;2022-11-20T14:58:00;3.65;;;2.65;;
68987;SDS011;56038;46.080;11.116;2022-11-20T15:03:13;6.97;;;3.67;;
68987;SDS011;56038;46.080;11.116;2022-11-20T15:08:16;9.20;;;3.20;;
68987;SDS011;56038;46.080;11.116;2022-11-20T15:13:23;7.30;;;3.65;;
68987;SDS011;56038;46.080;11.116;2022-11-20T15:18:28;8.88;;;5.18;;
68987;SDS011;56038;46.080;11.116;2022-11-20T15:23:32;4.32;;;3.13;;
68987;SDS011;56038;46.080;11.116;2022-11-20T15:28:36;3.97;;;3.30;;
68987;SDS011;56038;46.080;11.116;2022-11-20T15:33:40;5.70;;;3.95;;
68987;SDS011;56038;46.080;11.116;2022-11-20T15:38:42;4.43;;;3.17;;
68987;SDS011;56038;46.080;11.116;2022-11-20T15:43:45;3.85;;;3.30;;
68987;SDS011;56038;46.080;11.116;2022-11-20T15:48:48;5.72;;;3.70;;
68987;SDS011;56038;46.080;11.116;2022-11-20T15:53:53;3.97;;;3.05;;
68987;SDS011;56038;46.080;11.116;2022-11-20T15:58:57;5.75;;;3.30;;
68987;SDS011;56038;46.080;11.116;2022-11-20T16:03:59;4.15;;;3.35;;
68987;SDS011;56038;46.080;11.116;2022-11-20T16:09:01;6.70;;;3.92;;
68987;SDS011;56038;46.080;11.116;2022-11-20T16:14:05;8.70;;;5.10;;
68987;SDS011;56038;46.080;11.116;2022-11-20T16:19:24;7.60;;;4.88;;
68987;SDS011;56038;46.080;11.116;2022-11-20T16:24:26;5.00;;;2.83;;
68987;SDS011;56038;46.080;11.116;2022-11-20T16:29:29;8.85;;;4.80;;
68987;SDS011;56038;46.080;11.116;2022-11-20T16:34:31;8.35;;;4.60;;
68987;SDS011;56038;46.080;11.116;2022-11-20T16:39:32;8.45;;;4.63;;
68987;SDS011;56038;46.080;11.116;2022-11-20T16:44:35;7.53;;;4.18;;
68987;SDS011;56038;46.080;11.116;2022-11-20T16:49:37;6.18;;;4.07;;
68987;SDS011;56038;46.080;11.116;2022-11-20T16:54:39;10.95;;;5.18;;
68987;SDS011;56038;46.080;11.116;2022-11-20T16:59:42;10.30;;;5.72;;
68987;SDS011;56038;46.080;11.116;2022-11-20T17:04:44;7.20;;;4.30;;
68987;SDS011;56038;46.080;11.116;2022-11-20T17:09:46;5.50;;;4.05;;
68987;SDS011;56038;46.080;11.116;2022-11-20T17:14:50;8.45;;;3.97;;
68987;SDS011;56038;46.080;11.116;2022-11-20T17:19:51;5.35;;;4.13;;
68987;SDS011;56038;46.080;11.116;2022-11-20T17:24:53;6.28;;;4.05;;
68987;SDS011;56038;46.080;11.116;2022-11-20T17:29:57;6.70;;;5.00;;
68987;SDS011;56038;46.080;11.116;2022-11-20T17:34:59;11.15;;;6.10;;
68987;SDS011;56038;46.080;11.116;2022-11-20T17:40:01;8.43;;;4.60;;
68987;SDS011;56038;46.080;11.116;2022-11-20T17:45:05;5.72;;;4.22;;
68987;SDS011;56038;46.080;11.116;2022-11-20T17:50:07;7.20;;;4.43;;
68987;SDS011;56038;46.080;11.116;2022-11-20T17:55:09;6.97;;;4.47;;
68987;SDS011;56038;46.080;11.116;2022-11-20T18:00:13;13.63;;;9.32;;
68987;SDS011;56038;46.080;11.116;2022-11-20T18:05:17;7.17;;;5.90;;
68987;SDS011;56038;46.080;11.116;2022-11-20T18:10:22;8.95;;;6.15;;
68987;SDS011;56038;46.080;11.116;2022-11-20T18:15:25;8.85;;;5.60;;
68987;SDS011;56038;46.080;11.116;2022-11-20T18:20:27;9.48;;;5.88;;
68987;SDS011;56038;46.080;11.116;2022-11-20T18:25:29;9.75;;;6.30;;
68987;SDS011;56038;46.080;11.116;2022-11-20T18:30:32;11.57;;;6.43;;
68987;SDS011;56038;46.080;11.116;2022-11-20T18:35:36;7.87;;;6.83;;
68987;SDS011;56038;46.080;11.116;2022-11-20T18:40:42;9.52;;;7.18;;
68987;SDS011;56038;46.080;11.116;2022-11-20T18:45:45;11.77;;;8.15;;
68987;SDS011;56038;46.080;11.116;2022-11-20T18:50:47;11.35;;;7.75;;
68987;SDS011;56038;46.080;11.116;2022-11-20T18:55:49;12.55;;;8.70;;
68987;SDS011;56038;46.080;11.116;2022-11-20T19:00:52;76.00;;;37.75;;
68987;SDS011;56038;46.080;11.116;2022-11-20T19:05:53;15.50;;;8.95;;
68987;SDS011;56038;46.080;11.116;2022-11-20T19:11:04;14.13;;;8.95;;
68987;SDS011;56038;46.080;11.116;2022-11-20T19:16:08;11.52;;;7.53;;
68987;SDS011;56038;46.080;11.116;2022-11-20T19:21:13;12.40;;;8.18;;
68987;SDS011;56038;46.080;11.116;2022-11-20T19:26:16;11.02;;;7.65;;
68987;SDS011;56038;46.080;11.116;2022-11-20T19:31:21;15.48;;;9.52;;
68987;SDS011;56038;46.080;11.116;2022-11-20T19:36:26;13.95;;;8.57;;
68987;SDS011;56038;46.080;11.116;2022-11-20T19:41:29;14.15;;;9.10;;
68987;SDS011;56038;46.080;11.116;2022-11-20T19:46:33;13.68;;;9.38;;
68987;SDS011;56038;46.080;11.116;2022-11-20T19:51:42;13.48;;;9.52;;
68987;SDS011;56038;46.080;11.116;2022-11-20T19:56:46;15.20;;;9.73;;
68987;SDS011;56038;46.080;11.116;2022-11-20T20:01:51;17.08;;;9.57;;
68987;SDS011;56038;46.080;11.116;2022-11-20T20:06:52;15.05;;;9.50;;
68987;SDS011;56038;46.080;11.116;2022-11-20T20:11:55;13.80;;;9.70;;
68987;SDS011;56038;46.080;11.116;2022-11-20T20:16:58;14.52;;;10.30;;
68987;SDS011;56038;46.080;11.116;2022-11-20T20:22:00;16.02;;;10.88;;
68987;SDS011;56038;46.080;11.116;2022-11-20T20:27:01;18.15;;;11.55;;
68987;SDS011;56038;46.080;11.116;2022-11-20T20:32:05;19.63;;;13.65;;
68987;SDS011;56038;46.080;11.116;2022-11-20T20:37:06;20.60;;;13.45;;
68987;SDS011;56038;46.080;11.116;2022-11-20T20:42:08;19.05;;;12.70;;
68987;SDS011;56038;46.080;11.116;2022-11-20T20:47:11;18.50;;;11.40;;
68987;SDS011;56038;46.080;11.116;2022-11-20T20:52:13;16.02;;;11.05;;
68987;SDS011;56038;46.080;11.116;2022-11-20T20:57:17;16.25;;;11.52;;
68987;SDS011;56038;46.080;11.116;2022-11-20T21:02:24;17.65;;;12.32;;
68987;SDS011;56038;46.080;11.116;2022-11-20T21:07:26;21.35;;;13.43;;
68987;SDS011;56038;46.080;11.116;2022-11-20T21:12:27;19.73;;;13.30;;
68987;SDS011;56038;46.080;11.116;2022-11-20T21:17:30;21.20;;;13.23;;
68987;SDS011;56038;46.080;11.116;2022-11-20T21:22:32;19.10;;;13.48;;
68987;SDS011;56038;46.080;11.116;2022-11-20T21:27:34;17.98;;;12.30;;
68987;SDS011;56038;46.080;11.116;2022-11-20T21:32:38;19.98;;;13.27;;
68987;SDS011;56038;46.080;11.116;2022-11-20T21:37:39;20.38;;;12.27;;
68987;SDS011;56038;46.080;11.116;2022-11-20T21:42:41;18.70;;;11.63;;
68987;SDS011;56038;46.080;11.116;2022-11-20T21:47:47;20.70;;;11.68;;
68987;SDS011;56038;46.080;11.116;2022-11-20T21:52:49;16.20;;;11.93;;
68987;SDS011;56038;46.080;11.116;2022-11-20T21:57:51;19.45;;;12.93;;
68987;SDS011;56038;46.080;11.116;2022-11-20T22:02:54;19.95;;;13.82;;
68987;SDS011;56038;46.080;11.116;2022-11-20T22:07:55;17.48;;;12.27;;
68987;SDS011;56038;46.080;11.116;2022-11-20T22:12:57;14.48;;;10.75;;
68987;SDS011;56038;46.080;11.116;2022-11-20T22:18:14;15.48;;;10.88;;
68987;SDS011;56038;46.080;11.116;2022-11-20T22:23:17;16.15;;;11.50;;
68987;SDS011;56038;46.080;11.116;2022-11-20T22:28:18;17.20;;;10.85;;
68987;SDS011;56038;46.080;11.116;2022-11-20T22:33:22;15.00;;;10.73;;
68987;SDS011;56038;46.080;11.116;2022-11-20T22:38:23;16.27;;;9.80;;
68987;SDS011;56038;46.080;11.116;2022-11-20T22:43:25;14.55;;;10.25;;
68987;SDS011;56038;46.080;11.116;2022-11-20T22:48:28;16.15;;;11.82;;
68987;SDS011;56038;46.080;11.116;2022-11-20T22:53:30;16.83;;;11.38;;
68987;SDS011;56038;46.080;11.116;2022-11-20T22:58:33;14.88;;;10.95;;
68987;SDS011;56038;46.080;11.116;2022-11-20T23:03:37;16.45;;;11.07;;
68987;SDS011;56038;46.080;11.116;2022-11-20T23:08:40;17.83;;;11.02;;
68987;SDS011;56038;46.080;11.116;2022-11-20T23:13:43;16.08;;;10.32;;
68987;SDS011;56038;46.080;11.116;2022-11-20T23:18:51;15.18;;;10.85;;
68987;SDS011;56038;46.080;11.116;2022-11-20T23:23:55;14.18;;;9.27;;
68987;SDS011;56038;46.080;11.116;2022-11-20T23:28:58;14.95;;;9.88;;
68987;SDS011;56038;46.080;11.116;2022-11-20T23:34:01;16.35;;;10.50;;
68987;SDS011;56038;46.080;11.116;2022-11-20T23:39:04;11.80;;;8.93;;
68987;SDS011;56038;46.080;11.116;2022-11-20T23:44:07;11.73;;;7.57;;
68987;SDS011;56038;46.080;11.116;2022-11-20T23:49:10;11.65;;;7.68;;
68987;SDS011;56038;46.080;11.116;2022-11-20T23:54:12;11.25;;;8.13;;
68987;SDS011;56038;46.080;11.116;2022-11-20T23:59:14;10.73;;;7.93;;
